createdAt,value
2022-12-22T00:02:40.467Z,30.80
2022-12-22T00:05:36.389Z,32.45
2022-12-22T00:11:21.842Z,29.63
2022-12-22T00:16:56.763Z,30.45
2022-12-22T00:19:42.921Z,30.77
2022-12-22T00:22:32.629Z,30.92
2022-12-22T00:25:18.112Z,30.25
2022-12-22T00:28:03.931Z,29.75
2022-12-22T00:30:49.727Z,29.88
2022-12-22T00:33:37.702Z,29.52
2022-12-22T00:36:25.305Z,30.77
2022-12-22T00:39:11.055Z,30.45
2022-12-22T00:41:56.906Z,29.60
2022-12-22T00:44:42.962Z,29.70
2022-12-22T00:47:33.524Z,30.10
2022-12-22T00:50:19.707Z,28.33
2022-12-22T00:53:05.667Z,28.38
2022-12-22T00:55:51.548Z,29.90
2022-12-22T00:58:38.264Z,29.63
2022-12-22T01:01:24.531Z,31.42
2022-12-22T01:04:10.338Z,32.28
2022-12-22T01:09:42.470Z,30.67
2022-12-22T01:12:37.380Z,31.15
2022-12-22T01:15:23.614Z,32.70
2022-12-22T01:18:09.474Z,35.40
2022-12-22T01:20:55.695Z,33.50
2022-12-22T01:23:41.871Z,33.22
2022-12-22T01:26:30.794Z,33.22
2022-12-22T01:29:16.670Z,31.40
2022-12-22T01:32:02.713Z,33.22
2022-12-22T01:34:48.617Z,33.05
2022-12-22T01:37:34.370Z,32.47
2022-12-22T01:43:06.030Z,32.00
2022-12-22T01:45:53.108Z,33.03
2022-12-22T01:48:40.147Z,34.13
2022-12-22T01:51:28.373Z,32.67
2022-12-22T01:54:14.283Z,34.58
2022-12-22T01:57:00.241Z,34.90
2022-12-22T01:59:46.087Z,36.22
2022-12-22T02:02:32.259Z,34.42
2022-12-22T02:05:19.607Z,34.63
2022-12-22T02:08:25.371Z,34.00
2022-12-22T02:11:19.764Z,36.17
2022-12-22T02:14:05.664Z,35.20
2022-12-22T02:16:54.795Z,36.33
2022-12-22T02:19:46.329Z,37.40
2022-12-22T02:22:45.825Z,36.85
2022-12-22T02:25:35.763Z,36.65
2022-12-22T02:28:22.680Z,37.50
2022-12-22T02:31:09.309Z,36.88
2022-12-22T02:33:55.297Z,37.75
2022-12-22T02:37:10.016Z,37.05
2022-12-22T02:40:14.687Z,36.75
2022-12-22T02:43:13.869Z,36.88
2022-12-22T02:46:02.429Z,36.30
2022-12-22T02:49:11.182Z,37.88
2022-12-22T02:52:06.122Z,37.33
2022-12-22T02:54:52.765Z,36.28
2022-12-22T02:57:38.807Z,34.95
2022-12-22T03:00:25.441Z,35.60
2022-12-22T03:03:11.500Z,35.05
2022-12-22T03:05:57.612Z,34.95
2022-12-22T03:08:43.841Z,34.85
2022-12-22T03:11:29.742Z,35.75
2022-12-22T03:14:15.589Z,34.05
2022-12-22T03:17:01.742Z,36.28
2022-12-22T03:19:47.561Z,34.75
2022-12-22T03:22:33.434Z,35.45
2022-12-22T03:25:19.490Z,36.55
2022-12-22T03:27:46.523Z,37.33
2022-12-22T03:30:13.933Z,36.78
2022-12-22T03:32:41.014Z,35.75
2022-12-22T03:35:08.266Z,35.13
2022-12-22T03:37:35.353Z,34.42
2022-12-22T03:40:02.401Z,33.70
2022-12-22T03:42:48.373Z,33.85
2022-12-22T03:45:34.320Z,34.83
2022-12-22T03:48:01.393Z,34.13
2022-12-22T03:50:28.455Z,32.88
2022-12-22T03:52:55.579Z,34.35
2022-12-22T03:55:22.620Z,34.40
2022-12-22T03:57:49.688Z,37.38
2022-12-22T04:00:17.037Z,34.20
2022-12-22T04:02:44.171Z,33.88
2022-12-22T04:05:11.459Z,35.63
2022-12-22T04:07:38.732Z,37.20
2022-12-22T04:10:24.711Z,35.60
2022-12-22T04:12:55.282Z,34.55
2022-12-22T04:15:26.892Z,35.45
2022-12-22T04:17:54.236Z,35.97
2022-12-22T04:20:21.730Z,36.22
2022-12-22T04:22:49.183Z,34.38
2022-12-22T04:25:16.356Z,36.03
2022-12-22T04:27:43.423Z,35.75
2022-12-22T04:30:10.964Z,34.28
2022-12-22T04:32:38.383Z,34.80
2022-12-22T04:35:06.132Z,35.88
2022-12-22T04:37:33.413Z,35.95
2022-12-22T04:40:00.551Z,34.28
2022-12-22T04:42:27.646Z,36.67
2022-12-22T04:44:54.744Z,36.17
2022-12-22T04:47:21.800Z,35.60
2022-12-22T04:49:48.919Z,36.35
2022-12-22T04:52:15.977Z,37.38
2022-12-22T04:54:43.034Z,36.70
2022-12-22T04:57:10.087Z,36.92
2022-12-22T04:59:37.141Z,35.38
2022-12-22T05:02:04.307Z,35.58
2022-12-22T05:04:32.270Z,37.55
2022-12-22T05:06:59.291Z,36.80
2022-12-22T05:09:27.908Z,37.97
2022-12-22T05:11:54.986Z,36.45
2022-12-22T05:14:22.053Z,37.17
2022-12-22T05:16:49.165Z,37.45
2022-12-22T05:19:16.314Z,36.55
2022-12-22T05:21:43.464Z,38.53
2022-12-22T05:24:10.539Z,36.58
2022-12-22T05:26:37.589Z,37.95
2022-12-22T05:29:04.733Z,38.50
2022-12-22T05:31:31.806Z,36.35
2022-12-22T05:33:58.929Z,37.38
2022-12-22T05:36:25.966Z,38.50
2022-12-22T05:38:53.042Z,37.92
2022-12-22T05:41:20.266Z,39.33
2022-12-22T05:43:47.328Z,38.88
2022-12-22T05:46:14.494Z,36.13
2022-12-22T05:48:41.580Z,35.35
2022-12-22T05:51:09.930Z,36.08
2022-12-22T05:53:37.124Z,36.78
2022-12-22T05:56:04.244Z,36.17
2022-12-22T05:58:31.468Z,37.72
2022-12-22T06:00:59.106Z,36.72
2022-12-22T06:03:30.358Z,37.38
2022-12-22T06:05:57.645Z,37.38
2022-12-22T06:08:24.824Z,38.08
2022-12-22T06:10:54.158Z,36.42
2022-12-22T06:13:21.206Z,37.17
2022-12-22T06:15:49.115Z,37.58
2022-12-22T06:18:16.271Z,36.45
2022-12-22T06:20:43.409Z,36.25
2022-12-22T06:23:10.451Z,37.83
2022-12-22T06:25:37.501Z,35.28
2022-12-22T06:28:04.600Z,36.22
2022-12-22T06:30:33.780Z,37.30
2022-12-22T06:33:01.466Z,38.58
2022-12-22T06:35:28.687Z,37.65
2022-12-22T06:37:55.816Z,39.67
2022-12-22T06:40:22.967Z,40.90
2022-12-22T06:43:09.348Z,40.58
2022-12-22T06:45:38.024Z,40.35
2022-12-22T06:48:05.710Z,39.55
2022-12-22T06:50:32.991Z,38.20
2022-12-22T06:53:00.185Z,38.42
2022-12-22T06:55:27.227Z,37.72
2022-12-22T06:57:55.011Z,38.22
2022-12-22T07:00:22.364Z,37.03
2022-12-22T07:02:49.547Z,37.78
2022-12-22T07:05:16.880Z,38.92
2022-12-22T07:07:43.947Z,39.70
2022-12-22T07:10:11.237Z,37.35
2022-12-22T07:12:38.272Z,37.85
2022-12-22T07:15:05.562Z,38.50
2022-12-22T07:17:32.651Z,37.63
2022-12-22T07:19:59.709Z,37.80
2022-12-22T07:22:30.439Z,37.33
2022-12-22T07:24:58.988Z,37.17
2022-12-22T07:27:26.787Z,37.33
2022-12-22T07:29:54.248Z,37.05
2022-12-22T07:32:21.376Z,35.97
2022-12-22T07:34:48.457Z,35.72
2022-12-22T07:37:15.581Z,37.58
2022-12-22T07:39:42.629Z,35.28
2022-12-22T07:42:31.103Z,33.50
2022-12-22T07:44:58.235Z,38.88
2022-12-22T07:47:29.944Z,32.97
2022-12-22T07:50:18.951Z,30.85
2022-12-22T07:55:14.117Z,23.50
2022-12-22T07:57:41.211Z,24.02
2022-12-22T08:00:08.560Z,29.23
2022-12-22T08:02:39.190Z,28.55
2022-12-22T08:05:06.902Z,31.17
2022-12-22T08:07:34.043Z,28.13
2022-12-22T08:10:01.108Z,27.83
2022-12-22T08:12:29.735Z,29.90
2022-12-22T08:14:56.967Z,29.10
2022-12-22T08:17:23.987Z,28.95
2022-12-22T08:19:51.081Z,31.23
2022-12-22T08:22:18.129Z,29.75
2022-12-22T08:24:45.143Z,26.95
2022-12-22T08:27:15.926Z,27.13
2022-12-22T08:29:47.365Z,43.28
2022-12-22T08:32:14.421Z,29.33
2022-12-22T08:34:41.699Z,26.13
2022-12-22T08:37:11.246Z,30.77
2022-12-22T08:39:39.895Z,32.63
2022-12-22T08:42:07.827Z,33.80
2022-12-22T08:44:36.501Z,32.47
2022-12-22T08:47:03.777Z,29.63
2022-12-22T08:49:30.876Z,32.58
2022-12-22T08:51:57.968Z,31.52
2022-12-22T08:54:25.164Z,36.33
2022-12-22T08:56:52.967Z,32.20
2022-12-22T08:59:20.056Z,35.92
2022-12-22T09:01:50.430Z,29.35
2022-12-22T09:04:19.463Z,28.10
2022-12-22T09:06:46.754Z,28.65
2022-12-22T09:09:14.204Z,29.10
2022-12-22T09:11:41.516Z,29.67
2022-12-22T09:14:09.616Z,27.85
2022-12-22T09:16:37.301Z,29.05
2022-12-22T09:19:04.611Z,27.08
2022-12-22T09:21:31.804Z,28.95
2022-12-22T09:23:59.244Z,27.50
2022-12-22T09:26:27.534Z,27.20
2022-12-22T09:28:55.151Z,28.58
2022-12-22T09:31:23.697Z,27.83
2022-12-22T09:33:51.051Z,27.35
2022-12-22T09:36:19.939Z,26.75
2022-12-22T09:38:47.135Z,26.90
2022-12-22T09:41:19.293Z,25.27
2022-12-22T09:43:46.647Z,24.70
2022-12-22T09:46:20.829Z,24.52
2022-12-22T09:48:48.285Z,23.30
2022-12-22T09:51:18.619Z,22.80
2022-12-22T09:53:53.359Z,23.63
2022-12-22T09:56:20.691Z,23.90
2022-12-22T09:58:47.757Z,22.52
2022-12-22T10:01:14.849Z,24.25
2022-12-22T10:03:44.956Z,24.00
2022-12-22T10:06:12.201Z,24.67
2022-12-22T10:08:40.718Z,23.17
2022-12-22T10:11:08.523Z,24.08
2022-12-22T10:13:35.597Z,22.63
2022-12-22T10:16:02.646Z,22.05
2022-12-22T10:18:30.035Z,20.73
2022-12-22T10:21:11.621Z,22.50
2022-12-22T10:23:46.744Z,22.25
2022-12-22T10:26:29.136Z,23.52
2022-12-22T10:28:59.562Z,22.83
2022-12-22T10:31:27.703Z,22.98
2022-12-22T10:33:56.415Z,24.33
2022-12-22T10:36:25.412Z,22.77
2022-12-22T10:39:00.854Z,22.35
2022-12-22T10:44:03.383Z,21.42
2022-12-22T10:46:41.906Z,20.00
2022-12-22T10:49:18.253Z,20.50
2022-12-22T10:51:47.268Z,20.00
2022-12-22T10:54:35.995Z,20.08
2022-12-22T10:57:05.040Z,19.20
2022-12-22T10:59:33.148Z,19.23
2022-12-22T11:02:20.530Z,18.38
2022-12-22T11:04:51.381Z,18.85
2022-12-22T11:07:18.584Z,18.95
2022-12-22T11:09:45.653Z,18.75
2022-12-22T11:12:18.860Z,17.83
2022-12-22T11:14:52.240Z,19.25
2022-12-22T11:17:31.585Z,17.92
2022-12-22T11:20:18.398Z,17.00
2022-12-22T11:23:08.455Z,17.23
2022-12-22T11:25:38.553Z,15.10
2022-12-22T11:28:20.076Z,17.08
2022-12-22T11:31:05.958Z,15.20
2022-12-22T11:33:42.947Z,15.82
2022-12-22T11:36:14.748Z,14.30
2022-12-22T11:38:56.437Z,14.68
2022-12-22T11:41:26.642Z,13.15
2022-12-22T11:43:59.762Z,11.82
2022-12-22T11:46:26.907Z,11.35
2022-12-22T11:49:12.088Z,11.02
2022-12-22T11:51:52.194Z,12.27
2022-12-22T11:54:19.205Z,11.98
2022-12-22T11:56:48.084Z,10.18
2022-12-22T11:59:17.943Z,11.20
2022-12-22T12:01:51.374Z,11.18
2022-12-22T12:04:18.524Z,11.18
2022-12-22T12:06:51.548Z,11.65
2022-12-22T12:09:28.093Z,10.32
2022-12-22T12:12:05.374Z,11.40
2022-12-22T12:14:32.424Z,9.82
2022-12-22T12:17:00.471Z,8.90
2022-12-22T12:19:33.389Z,9.48
2022-12-22T12:22:09.532Z,10.00
2022-12-22T12:24:55.374Z,9.45
2022-12-22T12:27:29.465Z,9.65
2022-12-22T12:30:39.532Z,9.18
2022-12-22T12:33:02.231Z,9.95
2022-12-22T12:35:36.156Z,9.05
2022-12-22T12:38:25.947Z,9.25
2022-12-22T12:41:10.939Z,8.88
2022-12-22T12:43:38.118Z,9.43
2022-12-22T12:46:25.186Z,9.90
2022-12-22T12:48:52.467Z,9.40
2022-12-22T12:51:46.158Z,8.45
2022-12-22T12:54:32.209Z,7.75
2022-12-22T12:57:08.508Z,7.63
2022-12-22T12:59:41.777Z,6.70
2022-12-22T13:02:27.995Z,6.95
2022-12-22T13:05:12.095Z,6.88
2022-12-22T13:07:58.170Z,6.00
2022-12-22T13:10:26.504Z,7.28
2022-12-22T13:12:54.649Z,6.90
2022-12-22T13:15:35.467Z,6.75
2022-12-22T13:18:04.175Z,7.03
2022-12-22T13:20:33.060Z,6.78
2022-12-22T13:23:01.540Z,7.22
2022-12-22T13:25:40.842Z,7.70
2022-12-22T13:28:12.053Z,7.32
2022-12-22T13:30:39.215Z,7.22
2022-12-22T13:33:11.780Z,8.32
2022-12-22T13:35:47.198Z,7.32
2022-12-22T13:38:30.186Z,7.75
2022-12-22T13:40:58.597Z,7.97
2022-12-22T13:43:27.474Z,7.38
2022-12-22T13:45:58.993Z,7.43
2022-12-22T13:48:49.425Z,7.13
2022-12-22T13:51:22.059Z,7.47
2022-12-22T13:56:45.472Z,8.23
2022-12-22T13:59:30.968Z,7.72
2022-12-22T14:02:02.986Z,8.75
2022-12-22T14:04:31.015Z,8.15
2022-12-22T14:06:58.198Z,8.60
2022-12-22T14:09:28.859Z,9.35
2022-12-22T14:12:02.195Z,9.20
2022-12-22T14:14:39.891Z,11.07
2022-12-22T14:17:17.715Z,9.43
2022-12-22T14:19:44.852Z,8.60
2022-12-22T14:22:15.176Z,8.18
2022-12-22T14:24:47.239Z,10.43
2022-12-22T14:27:29.670Z,10.07
2022-12-22T14:29:58.000Z,9.02
2022-12-22T14:32:50.676Z,8.88
2022-12-22T14:35:21.391Z,10.05
2022-12-22T14:37:49.385Z,9.57
2022-12-22T14:40:36.176Z,9.80
2022-12-22T14:43:04.748Z,9.10
2022-12-22T14:45:31.924Z,9.48
2022-12-22T14:47:59.123Z,9.25
2022-12-22T14:50:35.030Z,8.98
2022-12-22T14:53:03.189Z,9.50
2022-12-22T14:55:31.883Z,9.73
2022-12-22T14:58:07.206Z,9.85
2022-12-22T15:03:03.645Z,9.20
2022-12-22T15:05:37.526Z,9.50
2022-12-22T15:08:07.997Z,9.18
2022-12-22T15:10:39.117Z,11.13
2022-12-22T15:13:07.712Z,9.48
2022-12-22T15:15:35.829Z,8.50
2022-12-22T15:18:03.711Z,9.30
2022-12-22T15:20:38.718Z,9.48
2022-12-22T15:23:10.857Z,8.50
2022-12-22T15:25:38.568Z,7.53
2022-12-22T15:28:06.110Z,8.30
2022-12-22T15:30:33.326Z,9.60
2022-12-22T15:33:00.611Z,8.80
2022-12-22T15:35:35.344Z,8.35
2022-12-22T15:38:02.742Z,8.57
2022-12-22T15:40:30.028Z,9.40
2022-12-22T15:42:57.398Z,7.68
2022-12-22T15:45:24.936Z,7.47
2022-12-22T15:47:53.132Z,8.40
2022-12-22T15:50:29.310Z,8.35
2022-12-22T15:53:00.294Z,7.68
2022-12-22T15:55:27.665Z,8.00
2022-12-22T15:57:57.403Z,8.25
2022-12-22T16:00:24.890Z,7.28
2022-12-22T16:02:52.186Z,7.55
2022-12-22T16:05:19.326Z,7.25
2022-12-22T16:07:49.638Z,7.43
2022-12-22T16:10:24.052Z,6.57
2022-12-22T16:12:59.878Z,6.83
2022-12-22T16:15:35.925Z,6.75
2022-12-22T16:18:04.756Z,6.72
2022-12-22T16:20:37.581Z,5.88
2022-12-22T16:23:05.641Z,7.82
2022-12-22T16:25:34.825Z,8.07
2022-12-22T16:28:02.247Z,7.28
2022-12-22T16:30:30.589Z,7.95
2022-12-22T16:32:58.022Z,7.53
2022-12-22T16:35:26.541Z,8.02
2022-12-22T16:37:56.173Z,8.00
2022-12-22T16:40:26.467Z,8.52
2022-12-22T16:45:44.142Z,9.82
2022-12-22T16:48:16.886Z,9.40
2022-12-22T16:50:45.320Z,11.07
2022-12-22T16:53:14.559Z,10.40
2022-12-22T16:55:44.476Z,11.15
2022-12-22T16:58:13.808Z,11.07
2022-12-22T17:00:43.970Z,11.98
2022-12-22T17:03:14.383Z,12.50
2022-12-22T17:05:49.830Z,13.73
2022-12-22T17:10:44.153Z,13.27
2022-12-22T17:13:11.632Z,13.43
2022-12-22T17:15:38.735Z,15.50
2022-12-22T17:18:07.640Z,13.80
2022-12-22T17:20:34.788Z,15.52
2022-12-22T17:23:02.898Z,18.42
2022-12-22T17:25:31.204Z,23.40
2022-12-22T17:27:59.405Z,17.88
2022-12-22T17:30:27.715Z,16.77
2022-12-22T17:32:54.894Z,16.50
2022-12-22T17:35:23.767Z,18.55
2022-12-22T17:37:51.279Z,17.00
2022-12-22T17:40:23.516Z,17.17
2022-12-22T17:42:50.692Z,16.83
2022-12-22T17:45:17.996Z,15.63
2022-12-22T17:47:47.244Z,16.77
2022-12-22T17:50:16.111Z,17.23
2022-12-22T17:52:43.875Z,17.30
2022-12-22T17:58:18.634Z,17.00
2022-12-22T18:00:45.901Z,19.85
2022-12-22T18:03:14.278Z,20.25
2022-12-22T18:05:43.778Z,20.17
2022-12-22T18:08:16.647Z,20.33
2022-12-22T18:10:43.869Z,19.02
2022-12-22T18:13:16.102Z,21.05
2022-12-22T18:15:43.382Z,21.58
2022-12-22T18:18:14.607Z,22.10
2022-12-22T18:20:42.299Z,23.30
2022-12-22T18:23:16.922Z,23.35
2022-12-22T18:25:44.299Z,24.80
2022-12-22T18:28:15.081Z,26.70
2022-12-22T18:30:42.433Z,26.60
2022-12-22T18:33:09.547Z,25.65
2022-12-22T18:35:37.163Z,24.83
2022-12-22T18:38:04.601Z,25.75
2022-12-22T18:40:33.004Z,25.70
2022-12-22T18:43:00.782Z,26.88
2022-12-22T18:45:29.405Z,25.33
2022-12-22T18:47:56.941Z,25.40
2022-12-22T18:50:25.334Z,25.88
2022-12-22T18:52:53.298Z,27.13
2022-12-22T18:55:31.272Z,25.52
2022-12-22T18:57:58.827Z,26.15
2022-12-22T19:00:27.038Z,27.40
2022-12-22T19:02:55.400Z,26.85
2022-12-22T19:05:27.100Z,28.90
2022-12-22T19:07:54.418Z,27.10
2022-12-22T19:10:26.955Z,26.75
2022-12-22T19:12:55.293Z,27.42
2022-12-22T19:15:24.370Z,27.05
2022-12-22T19:17:51.907Z,25.75
2022-12-22T19:20:20.085Z,26.33
2022-12-22T19:22:47.368Z,27.33
2022-12-22T19:25:18.909Z,28.23
2022-12-22T19:27:46.912Z,27.20
2022-12-22T19:30:18.407Z,28.92
2022-12-22T19:32:47.973Z,27.83
2022-12-22T19:35:25.462Z,30.40
2022-12-22T19:37:53.221Z,28.95
2022-12-22T19:40:21.246Z,29.67
2022-12-22T19:42:50.413Z,28.35
2022-12-22T19:45:21.677Z,31.98
2022-12-22T19:47:49.955Z,31.23
2022-12-22T19:50:18.465Z,30.75
2022-12-22T19:52:45.605Z,32.95
2022-12-22T19:55:12.992Z,36.65
2022-12-22T19:57:43.650Z,34.38
2022-12-22T20:00:15.187Z,33.47
2022-12-22T20:02:42.502Z,32.97
2022-12-22T20:05:23.001Z,35.80
2022-12-22T20:07:50.697Z,32.90
2022-12-22T20:10:18.158Z,31.77
2022-12-22T20:12:46.970Z,32.13
2022-12-22T20:15:18.646Z,33.45
2022-12-22T20:17:46.431Z,29.23
2022-12-22T20:20:17.819Z,28.90
2022-12-22T20:22:49.824Z,30.23
2022-12-22T20:25:17.992Z,31.20
2022-12-22T20:27:45.112Z,32.30
2022-12-22T20:30:25.910Z,32.00
2022-12-22T20:32:54.423Z,31.08
2022-12-22T20:35:22.248Z,32.17
2022-12-22T20:37:50.101Z,30.30
2022-12-22T20:40:28.221Z,32.28
2022-12-22T20:42:55.404Z,34.05
2022-12-22T20:45:22.591Z,33.10
2022-12-22T20:47:53.473Z,32.15
2022-12-22T20:50:20.583Z,31.83
2022-12-22T20:52:47.988Z,34.65
2022-12-22T20:55:16.654Z,31.92
2022-12-22T20:57:44.488Z,32.05
2022-12-22T21:00:16.744Z,31.27
2022-12-22T21:02:43.852Z,32.90
2022-12-22T21:05:11.169Z,30.95
2022-12-22T21:07:38.270Z,32.17
2022-12-22T21:10:05.551Z,32.72
2022-12-22T21:12:32.661Z,34.28
2022-12-22T21:14:59.740Z,33.63
2022-12-22T21:17:26.849Z,35.22
2022-12-22T21:19:53.877Z,37.92
2022-12-22T21:22:20.959Z,34.33
2022-12-22T21:24:48.140Z,35.17
2022-12-22T21:27:20.290Z,33.42
2022-12-22T21:29:47.791Z,31.67
2022-12-22T21:32:15.356Z,32.90
2022-12-22T21:34:42.529Z,36.10
2022-12-22T21:37:16.705Z,33.38
2022-12-22T21:39:44.795Z,33.58
2022-12-22T21:42:20.022Z,33.65
2022-12-22T21:47:15.262Z,33.25
2022-12-22T21:49:42.352Z,32.28
2022-12-22T21:52:09.440Z,33.63
2022-12-22T21:54:36.520Z,32.72
2022-12-22T21:57:03.648Z,32.53
2022-12-22T21:59:30.716Z,32.85
2022-12-22T22:01:58.060Z,30.85
2022-12-22T22:04:25.395Z,31.10
2022-12-22T22:06:52.482Z,31.20
2022-12-22T22:09:19.618Z,34.67
2022-12-22T22:12:05.618Z,33.75
2022-12-22T22:14:32.727Z,31.98
2022-12-22T22:16:59.780Z,36.42
2022-12-22T22:19:26.833Z,32.60
2022-12-22T22:21:53.919Z,32.55
2022-12-22T22:24:21.029Z,33.13
2022-12-22T22:26:50.387Z,35.42
2022-12-22T22:29:17.505Z,36.83
2022-12-22T22:31:44.754Z,34.05
2022-12-22T22:34:11.868Z,37.13
2022-12-22T22:36:38.890Z,37.63
2022-12-22T22:39:06.201Z,34.05
2022-12-22T22:41:39.124Z,34.78
2022-12-22T22:44:09.875Z,34.67
2022-12-22T22:46:37.018Z,34.63
2022-12-22T22:49:04.168Z,35.05
2022-12-22T22:51:31.228Z,38.17
2022-12-22T22:53:58.475Z,35.58
2022-12-22T22:56:25.547Z,36.40
2022-12-22T22:58:52.625Z,37.78
2022-12-22T23:01:19.851Z,35.22
2022-12-22T23:03:47.194Z,37.58
2022-12-22T23:06:14.853Z,38.13
2022-12-22T23:08:41.873Z,36.58
2022-12-22T23:11:13.346Z,37.38
2022-12-22T23:13:40.581Z,37.17
2022-12-22T23:16:07.721Z,36.72
2022-12-22T23:18:34.937Z,36.28
2022-12-22T23:21:02.986Z,36.63
2022-12-22T23:23:30.127Z,36.08
2022-12-22T23:25:57.439Z,35.63
2022-12-22T23:28:24.763Z,38.35
2022-12-22T23:30:52.915Z,37.97
2022-12-22T23:33:20.909Z,37.08
2022-12-22T23:35:49.398Z,37.92
2022-12-22T23:38:17.390Z,35.65
2022-12-22T23:40:53.482Z,36.15
2022-12-22T23:43:21.770Z,35.15
2022-12-22T23:45:48.821Z,35.95
2022-12-22T23:48:15.889Z,36.65
2022-12-22T23:50:46.108Z,35.95
2022-12-22T23:53:13.302Z,34.17
2022-12-22T23:55:47.269Z,34.35
2022-12-22T23:58:14.709Z,34.58
